createdAt,value
2023-01-28T00:01:26.266Z,-0.30
2023-01-28T00:03:53.524Z,-0.30
2023-01-28T00:06:20.797Z,-0.20
2023-01-28T00:08:48.780Z,-0.20
2023-01-28T00:11:15.905Z,-0.20
2023-01-28T00:13:43.178Z,-0.20
2023-01-28T00:16:10.965Z,-0.20
2023-01-28T00:18:38.476Z,-0.20
2023-01-28T00:21:12.701Z,-0.20
2023-01-28T00:23:41.232Z,-0.20
2023-01-28T00:26:11.675Z,-0.20
2023-01-28T00:28:43.532Z,-0.20
2023-01-28T00:31:17.239Z,-0.30
2023-01-28T00:33:46.158Z,-0.20
2023-01-28T00:36:14.544Z,-0.20
2023-01-28T00:38:42.842Z,-0.10
2023-01-28T00:41:12.634Z,-0.10
2023-01-28T00:43:40.880Z,-0.20
2023-01-28T00:46:11.183Z,-0.20
2023-01-28T00:48:40.216Z,-0.30
2023-01-28T00:51:08.317Z,-0.30
2023-01-28T00:53:36.818Z,-0.30
2023-01-28T00:56:08.385Z,-0.30
2023-01-28T00:58:35.601Z,-0.30
2023-01-28T01:01:26.087Z,-0.30
2023-01-28T01:04:03.177Z,-0.30
2023-01-28T01:06:35.180Z,-0.30
2023-01-28T01:09:03.954Z,-0.30
2023-01-28T01:11:31.304Z,-0.40
2023-01-28T01:14:00.128Z,-0.40
2023-01-28T01:16:29.746Z,-0.30
2023-01-28T01:18:57.213Z,-0.30
2023-01-28T01:21:26.996Z,-0.30
2023-01-28T01:23:54.421Z,-0.30
2023-01-28T01:26:22.797Z,-0.30
2023-01-28T01:28:52.156Z,-0.30
2023-01-28T01:31:21.003Z,-0.30
2023-01-28T01:33:50.211Z,-0.30
2023-01-28T01:36:20.156Z,-0.30
2023-01-28T01:38:48.046Z,-0.30
2023-01-28T01:41:33.515Z,-0.30
2023-01-28T01:44:02.900Z,-0.30
2023-01-28T01:46:41.346Z,-0.30
2023-01-28T01:49:24.794Z,-0.30
2023-01-28T01:52:10.560Z,-0.30
2023-01-28T01:54:41.443Z,-0.20
2023-01-28T01:57:12.849Z,-0.20
2023-01-28T01:59:42.214Z,-0.20
2023-01-28T02:02:11.247Z,-0.20
2023-01-28T02:04:44.802Z,-0.20
2023-01-28T02:07:18.527Z,-0.20
2023-01-28T02:09:45.750Z,-0.20
2023-01-28T02:12:18.063Z,-0.20
2023-01-28T02:14:53.793Z,-0.20
2023-01-28T02:17:21.939Z,-0.30
2023-01-28T02:19:58.840Z,-0.30
2023-01-28T02:22:29.075Z,-0.20
2023-01-28T02:25:08.326Z,-0.30
2023-01-28T02:27:58.698Z,-0.20
2023-01-28T02:30:32.050Z,-0.20
2023-01-28T02:33:03.897Z,-0.20
2023-01-28T02:35:48.451Z,-0.20
2023-01-28T02:38:22.503Z,-0.20
2023-01-28T02:41:05.640Z,-0.20
2023-01-28T02:43:38.315Z,-0.20
2023-01-28T02:46:38.888Z,-0.20
2023-01-28T02:49:14.023Z,-0.20
2023-01-28T02:52:41.425Z,-0.20
2023-01-28T02:55:35.384Z,-0.20
2023-01-28T02:58:18.173Z,-0.20
2023-01-28T03:01:06.581Z,-0.20
2023-01-28T03:03:57.076Z,-0.30
2023-01-28T03:06:48.962Z,-0.20
2023-01-28T03:09:24.305Z,-0.30
2023-01-28T03:12:25.072Z,-0.20
2023-01-28T03:15:24.394Z,-0.20
2023-01-28T03:18:25.270Z,-0.20
2023-01-28T03:21:34.360Z,-0.20
2023-01-28T03:24:49.128Z,-0.10
2023-01-28T03:27:48.323Z,-0.10
2023-01-28T03:30:45.456Z,-0.10
2023-01-28T03:33:41.611Z,-0.20
2023-01-28T03:36:28.484Z,-0.20
2023-01-28T03:38:56.473Z,-0.20
2023-01-28T03:41:26.113Z,-0.20
2023-01-28T03:43:56.071Z,-0.20
2023-01-28T03:46:23.470Z,-0.20
2023-01-28T03:48:50.730Z,-0.20
2023-01-28T03:51:18.316Z,-0.20
2023-01-28T03:53:45.696Z,-0.30
2023-01-28T03:56:19.455Z,-0.30
2023-01-28T03:58:53.632Z,-0.30
2023-01-28T04:01:21.513Z,-0.20
2023-01-28T04:03:49.065Z,-0.20
2023-01-28T04:06:22.215Z,-0.20
2023-01-28T04:08:59.747Z,-0.20
2023-01-28T04:11:32.932Z,-0.20
2023-01-28T04:14:03.051Z,-0.20
2023-01-28T04:16:43.545Z,-0.20
2023-01-28T04:19:15.190Z,-0.20
2023-01-28T04:21:43.274Z,-0.20
2023-01-28T04:24:10.629Z,-0.20
2023-01-28T04:26:38.137Z,-0.20
2023-01-28T04:29:06.175Z,-0.20
2023-01-28T04:31:35.423Z,-0.20
2023-01-28T04:34:23.391Z,-0.10
2023-01-28T04:37:09.277Z,-0.20
2023-01-28T04:39:45.800Z,-0.20
2023-01-28T04:42:36.113Z,-0.20
2023-01-28T04:45:11.637Z,-0.20
2023-01-28T04:47:56.349Z,-0.20
2023-01-28T04:50:42.268Z,-0.20
2023-01-28T04:53:38.344Z,-0.10
2023-01-28T04:56:24.355Z,-0.20
2023-01-28T04:58:51.932Z,-0.20
2023-01-28T05:01:19.310Z,-0.20
2023-01-28T05:03:46.582Z,-0.20
2023-01-28T05:06:21.900Z,-0.30
2023-01-28T05:08:51.375Z,-0.30
2023-01-28T05:11:18.618Z,-0.20
2023-01-28T05:13:49.711Z,-0.20
2023-01-28T05:16:18.757Z,-0.20
2023-01-28T05:18:47.957Z,-0.20
2023-01-28T05:21:18.238Z,-0.20
2023-01-28T05:23:48.510Z,-0.20
2023-01-28T05:26:15.890Z,-0.20
2023-01-28T05:28:43.203Z,-0.20
2023-01-28T05:31:11.388Z,-0.20
2023-01-28T05:33:39.260Z,-0.20
2023-01-28T05:36:09.702Z,-0.20
2023-01-28T05:38:37.086Z,-0.30
2023-01-28T05:41:04.513Z,-0.30
2023-01-28T05:43:32.520Z,-0.30
2023-01-28T05:46:26.051Z,-0.20
2023-01-28T05:49:16.700Z,-0.30
2023-01-28T05:52:16.245Z,-0.30
2023-01-28T05:54:44.614Z,-0.30
2023-01-28T05:57:12.192Z,-0.30
2023-01-28T05:59:39.584Z,-0.30
2023-01-28T06:02:06.960Z,-0.20
2023-01-28T06:04:34.287Z,-0.20
2023-01-28T06:07:01.536Z,-0.30
2023-01-28T06:09:29.201Z,-0.20
2023-01-28T06:11:56.729Z,-0.20
2023-01-28T06:14:24.661Z,-0.20
2023-01-28T06:17:06.149Z,-0.20
2023-01-28T06:19:44.183Z,-0.20
2023-01-28T06:22:12.322Z,-0.20
2023-01-28T06:24:39.498Z,-0.20
2023-01-28T06:27:06.967Z,-0.20
2023-01-28T06:29:34.137Z,-0.20
2023-01-28T06:32:01.325Z,-0.10
2023-01-28T06:34:28.577Z,-0.10
2023-01-28T06:36:55.754Z,-0.10
2023-01-28T06:39:23.138Z,-0.10
2023-01-28T06:41:50.785Z,-0.20
2023-01-28T06:44:18.068Z,-0.20
2023-01-28T06:46:45.381Z,-0.20
2023-01-28T06:49:12.619Z,-0.10
2023-01-28T06:51:39.833Z,-0.10
2023-01-28T06:54:07.259Z,-0.10
2023-01-28T06:56:34.467Z,-0.10
2023-01-28T06:59:01.793Z,-0.10
2023-01-28T07:01:29.016Z,-0.10
2023-01-28T07:03:56.516Z,-0.10
2023-01-28T07:06:23.875Z,-0.10
2023-01-28T07:08:51.001Z,-0.10
2023-01-28T07:11:18.226Z,-0.10
2023-01-28T07:13:46.441Z,-0.10
2023-01-28T07:16:14.076Z,-0.10
2023-01-28T07:18:41.289Z,-0.10
2023-01-28T07:21:08.601Z,-0.10
2023-01-28T07:23:35.843Z,-0.10
2023-01-28T07:26:04.429Z,-0.10
2023-01-28T07:28:31.814Z,0.00
2023-01-28T07:30:59.033Z,0.00
2023-01-28T07:33:26.288Z,0.00
2023-01-28T07:35:53.533Z,0.10
2023-01-28T07:38:20.693Z,0.00
2023-01-28T07:40:48.229Z,0.10
2023-01-28T07:43:15.737Z,0.00
2023-01-28T07:45:42.995Z,-0.10
2023-01-28T07:48:13.127Z,-0.10
2023-01-28T07:50:40.429Z,-0.20
2023-01-28T07:53:10.820Z,-0.20
2023-01-28T07:55:38.766Z,-0.10
2023-01-28T07:58:07.701Z,-0.10
2023-01-28T08:00:36.653Z,-0.10
2023-01-28T08:03:13.227Z,-0.10
2023-01-28T08:05:51.881Z,-0.20
2023-01-28T08:08:19.512Z,-0.20
2023-01-28T08:10:46.857Z,-0.20
2023-01-28T08:13:15.671Z,-0.20
2023-01-28T08:15:43.644Z,-0.20
2023-01-28T08:18:13.584Z,-0.10
2023-01-28T08:20:42.839Z,-0.10
2023-01-28T08:23:16.899Z,-0.10
2023-01-28T08:25:44.191Z,-0.10
2023-01-28T08:28:12.764Z,0.00
2023-01-28T08:30:40.630Z,0.00
2023-01-28T08:33:09.482Z,0.00
2023-01-28T08:35:37.008Z,-0.10
2023-01-28T08:38:05.816Z,-0.10
2023-01-28T08:40:33.823Z,0.00
2023-01-28T08:43:01.083Z,0.10
2023-01-28T08:45:28.607Z,0.10
2023-01-28T08:48:06.589Z,0.20
2023-01-28T08:50:36.322Z,0.30
2023-01-28T08:53:06.360Z,0.90
2023-01-28T08:55:34.517Z,0.40
2023-01-28T08:58:07.100Z,0.30
2023-01-28T09:00:35.449Z,0.40
2023-01-28T09:03:05.564Z,0.40
2023-01-28T09:05:34.933Z,0.40
2023-01-28T09:08:06.955Z,0.50
2023-01-28T09:10:34.591Z,0.50
2023-01-28T09:13:09.831Z,0.70
2023-01-28T09:15:37.906Z,0.70
2023-01-28T09:18:05.849Z,0.80
2023-01-28T09:20:33.760Z,0.80
2023-01-28T09:23:02.013Z,0.80
2023-01-28T09:25:29.354Z,0.80
2023-01-28T09:27:57.602Z,0.90
2023-01-28T09:30:25.377Z,0.90
2023-01-28T09:32:53.943Z,1.00
2023-01-28T09:35:21.538Z,1.00
2023-01-28T09:37:48.946Z,1.00
2023-01-28T09:40:25.797Z,1.00
2023-01-28T09:43:20.828Z,1.00
2023-01-28T09:45:50.733Z,1.00
2023-01-28T09:48:21.659Z,1.10
2023-01-28T09:50:54.591Z,1.20
2023-01-28T09:53:33.065Z,1.30
2023-01-28T09:56:09.792Z,1.40
2023-01-28T09:58:37.047Z,1.50
2023-01-28T10:01:22.587Z,1.60
2023-01-28T10:04:00.909Z,1.60
2023-01-28T10:06:30.966Z,1.80
2023-01-28T10:09:04.409Z,1.80
2023-01-28T10:11:49.917Z,1.80
2023-01-28T10:14:40.257Z,1.90
2023-01-28T10:17:18.628Z,1.90
2023-01-28T10:19:56.253Z,2.00
2023-01-28T10:22:31.609Z,2.10
2023-01-28T10:25:06.767Z,2.20
2023-01-28T10:27:37.120Z,2.30
2023-01-28T10:30:31.940Z,2.40
2023-01-28T10:33:24.360Z,2.50
2023-01-28T10:35:51.600Z,2.50
2023-01-28T10:38:23.384Z,2.50
2023-01-28T10:40:50.804Z,2.50
2023-01-28T10:43:24.766Z,2.50
2023-01-28T10:46:14.533Z,2.40
2023-01-28T10:48:53.784Z,2.50
2023-01-28T10:51:31.932Z,2.60
2023-01-28T10:53:59.158Z,2.70
2023-01-28T10:56:32.109Z,2.60
2023-01-28T10:59:04.238Z,2.60
2023-01-28T11:01:45.027Z,2.60
2023-01-28T11:04:29.511Z,2.70
2023-01-28T11:07:05.875Z,2.60
2023-01-28T11:09:36.166Z,2.50
2023-01-28T11:12:20.654Z,2.30
2023-01-28T11:14:54.920Z,2.10
2023-01-28T11:17:25.542Z,2.20
2023-01-28T11:19:59.103Z,2.20
2023-01-28T11:22:35.706Z,2.20
2023-01-28T11:25:13.899Z,2.30
2023-01-28T11:27:41.276Z,2.30
2023-01-28T11:30:25.922Z,2.30
2023-01-28T11:33:03.498Z,2.30
2023-01-28T11:35:31.783Z,2.30
2023-01-28T11:38:00.399Z,2.40
2023-01-28T11:40:28.404Z,2.40
2023-01-28T11:42:57.847Z,2.60
2023-01-28T11:45:43.485Z,2.50
2023-01-28T11:48:21.995Z,2.50
2023-01-28T11:50:59.893Z,2.60
2023-01-28T11:53:29.960Z,2.70
2023-01-28T11:56:28.488Z,2.60
2023-01-28T11:59:24.844Z,2.60
2023-01-28T12:01:55.021Z,2.70
2023-01-28T12:04:46.323Z,2.70
2023-01-28T12:07:30.444Z,2.70
2023-01-28T12:10:19.423Z,2.70
2023-01-28T12:13:14.591Z,2.70
2023-01-28T12:16:15.810Z,2.60
2023-01-28T12:19:20.543Z,2.50
2023-01-28T12:22:08.084Z,2.60
2023-01-28T12:25:07.271Z,2.70
2023-01-28T12:27:57.096Z,2.70
2023-01-28T12:30:30.359Z,2.70
2023-01-28T12:33:31.400Z,2.70
2023-01-28T12:36:23.287Z,2.80
2023-01-28T12:39:17.753Z,2.90
2023-01-28T12:41:53.194Z,2.80
2023-01-28T12:44:31.433Z,2.80
2023-01-28T12:47:07.652Z,2.80
2023-01-28T12:49:46.169Z,2.80
2023-01-28T12:52:26.605Z,2.80
2023-01-28T12:55:01.156Z,2.70
2023-01-28T12:57:31.335Z,2.70
2023-01-28T13:00:05.205Z,2.80
2023-01-28T13:02:40.220Z,2.80
2023-01-28T13:05:19.151Z,2.80
2023-01-28T13:07:59.060Z,2.70
2023-01-28T13:10:33.912Z,2.70
2023-01-28T13:13:01.627Z,2.70
2023-01-28T13:15:30.131Z,2.70
2023-01-28T13:17:58.600Z,2.60
2023-01-28T13:20:46.994Z,2.60
2023-01-28T13:23:41.522Z,2.60
2023-01-28T13:26:29.004Z,2.50
2023-01-28T13:29:19.262Z,2.50
2023-01-28T13:31:52.080Z,2.40
2023-01-28T13:34:36.869Z,2.40
2023-01-28T13:37:07.253Z,2.40
2023-01-28T13:39:36.327Z,2.40
2023-01-28T13:42:22.841Z,2.30
2023-01-28T13:44:50.479Z,2.30
2023-01-28T13:47:27.027Z,2.20
2023-01-28T13:50:05.255Z,2.20
2023-01-28T13:52:58.184Z,2.10
2023-01-28T13:55:44.627Z,2.00
2023-01-28T13:58:31.885Z,1.90
2023-01-28T14:01:20.204Z,1.90
2023-01-28T14:03:50.389Z,1.80
2023-01-28T14:06:23.587Z,1.80
2023-01-28T14:09:21.989Z,1.70
2023-01-28T14:12:08.032Z,1.60
2023-01-28T14:15:13.493Z,1.60
2023-01-28T14:17:53.732Z,1.60
2023-01-28T14:20:27.521Z,1.60
2023-01-28T14:23:02.116Z,1.60
2023-01-28T14:25:47.717Z,1.70
2023-01-28T14:28:37.665Z,1.60
2023-01-28T14:31:10.917Z,1.70
2023-01-28T14:33:38.921Z,1.70
2023-01-28T14:36:06.816Z,1.70
2023-01-28T14:38:41.060Z,1.70
2023-01-28T14:41:09.223Z,1.80
2023-01-28T14:43:38.225Z,1.80
2023-01-28T14:46:43.164Z,1.90
2023-01-28T14:49:16.152Z,1.90
2023-01-28T14:52:03.556Z,1.70
2023-01-28T14:54:50.404Z,1.70
2023-01-28T14:57:27.877Z,1.80
2023-01-28T15:00:01.606Z,1.80
2023-01-28T15:02:31.389Z,2.00
2023-01-28T15:05:21.071Z,1.80
2023-01-28T15:07:49.068Z,1.80
2023-01-28T15:10:27.160Z,1.80
2023-01-28T15:13:05.136Z,1.70
2023-01-28T15:15:38.231Z,1.70
2023-01-28T15:18:16.919Z,1.70
2023-01-28T15:20:49.552Z,1.70
2023-01-28T15:23:25.823Z,1.60
2023-01-28T15:25:55.245Z,1.60
2023-01-28T15:28:32.151Z,1.60
2023-01-28T15:30:59.772Z,1.60
2023-01-28T15:33:27.327Z,1.60
2023-01-28T15:35:57.543Z,1.60
2023-01-28T15:38:27.745Z,1.50
2023-01-28T15:41:03.052Z,1.50
2023-01-28T15:43:36.736Z,1.40
2023-01-28T15:46:09.457Z,1.50
2023-01-28T15:48:37.203Z,1.60
2023-01-28T15:51:07.471Z,1.50
2023-01-28T15:53:46.830Z,1.50
2023-01-28T15:56:15.736Z,1.50
2023-01-28T15:58:43.217Z,1.60
2023-01-28T16:01:10.470Z,1.50
2023-01-28T16:03:39.873Z,1.60
2023-01-28T16:06:18.691Z,1.60
2023-01-28T16:08:51.607Z,1.60
2023-01-28T16:11:31.903Z,1.60
2023-01-28T16:13:59.792Z,1.60
2023-01-28T16:16:38.324Z,1.60
2023-01-28T16:19:06.862Z,1.60
2023-01-28T16:21:43.903Z,1.60
2023-01-28T16:24:24.903Z,1.50
2023-01-28T16:27:09.486Z,1.60
2023-01-28T16:29:36.830Z,1.60
2023-01-28T16:32:04.360Z,1.60
2023-01-28T16:34:31.585Z,1.50
2023-01-28T16:37:00.012Z,1.50
2023-01-28T16:39:27.337Z,1.50
2023-01-28T16:41:56.788Z,1.50
2023-01-28T16:44:24.027Z,1.50
2023-01-28T16:46:51.358Z,1.50
2023-01-28T16:49:18.515Z,1.50
2023-01-28T16:51:45.762Z,1.50
2023-01-28T16:54:15.653Z,1.40
2023-01-28T16:56:46.426Z,1.40
2023-01-28T16:59:16.018Z,1.40
2023-01-28T17:01:44.605Z,1.40
2023-01-28T17:04:13.057Z,1.30
2023-01-28T17:06:43.009Z,1.30
2023-01-28T17:09:12.131Z,1.30
2023-01-28T17:11:40.524Z,1.20
2023-01-28T17:14:08.488Z,1.10
2023-01-28T17:16:35.981Z,1.10
2023-01-28T17:19:03.353Z,1.00
2023-01-28T17:21:30.658Z,1.10
2023-01-28T17:23:59.323Z,1.10
2023-01-28T17:26:28.892Z,1.10
2023-01-28T17:28:56.452Z,1.10
2023-01-28T17:31:23.992Z,1.10
2023-01-28T17:33:57.142Z,1.10
2023-01-28T17:36:25.806Z,1.10
2023-01-28T17:38:53.380Z,1.10
2023-01-28T17:41:21.176Z,1.10
2023-01-28T17:43:53.299Z,1.00
2023-01-28T17:46:22.582Z,1.10
2023-01-28T17:48:50.133Z,1.10
2023-01-28T17:51:18.604Z,1.10
2023-01-28T17:53:51.400Z,1.10
2023-01-28T17:56:21.402Z,1.10
2023-01-28T17:58:52.743Z,1.10
2023-01-28T18:01:21.403Z,1.10
2023-01-28T18:03:48.638Z,1.10
2023-01-28T18:06:16.343Z,1.10
2023-01-28T18:08:43.867Z,1.10
2023-01-28T18:11:13.275Z,1.20
2023-01-28T18:13:41.902Z,1.20
2023-01-28T18:16:14.646Z,1.20
2023-01-28T18:18:42.488Z,1.20
2023-01-28T18:21:51.332Z,1.20
2023-01-28T18:24:21.017Z,1.30
2023-01-28T18:26:48.369Z,1.20
2023-01-28T18:29:20.155Z,1.20
2023-01-28T18:31:48.580Z,1.20
2023-01-28T18:34:16.420Z,1.20
2023-01-28T18:36:43.638Z,1.20
2023-01-28T18:39:12.711Z,1.20
2023-01-28T18:41:40.303Z,1.20
2023-01-28T18:44:12.811Z,1.20
2023-01-28T18:46:40.503Z,1.10
2023-01-28T18:49:07.735Z,1.10
2023-01-28T18:51:35.080Z,1.20
2023-01-28T18:54:04.248Z,1.10
2023-01-28T18:56:32.346Z,1.10
2023-01-28T18:59:04.713Z,1.10
2023-01-28T19:01:35.493Z,1.10
2023-01-28T19:04:03.299Z,1.10
2023-01-28T19:06:31.398Z,1.10
2023-01-28T19:09:01.166Z,1.10
2023-01-28T19:11:30.362Z,1.10
2023-01-28T19:13:57.882Z,1.10
2023-01-28T19:16:26.009Z,1.20
2023-01-28T19:19:00.869Z,1.10
2023-01-28T19:21:29.681Z,1.10
2023-01-28T19:23:59.847Z,1.10
2023-01-28T19:26:29.397Z,1.10
2023-01-28T19:28:56.856Z,1.10
2023-01-28T19:31:25.203Z,1.10
2023-01-28T19:33:58.431Z,1.10
2023-01-28T19:36:28.301Z,1.10
2023-01-28T19:38:59.935Z,1.10
2023-01-28T19:41:28.467Z,1.20
2023-01-28T19:43:56.946Z,1.20
2023-01-28T19:46:24.685Z,1.20
2023-01-28T19:48:52.284Z,1.20
2023-01-28T19:51:20.516Z,1.20
2023-01-28T19:53:53.334Z,1.20
2023-01-28T19:56:23.929Z,1.20
2023-01-28T19:58:53.263Z,1.20
2023-01-28T20:01:23.847Z,1.20
2023-01-28T20:03:54.418Z,1.20
2023-01-28T20:06:23.793Z,1.20
2023-01-28T20:08:56.499Z,1.20
2023-01-28T20:11:24.229Z,1.20
2023-01-28T20:13:52.362Z,1.10
2023-01-28T20:16:23.076Z,1.20
2023-01-28T20:18:58.874Z,1.20
2023-01-28T20:21:26.600Z,1.20
2023-01-28T20:23:54.725Z,1.20
2023-01-28T20:26:25.102Z,1.20
2023-01-28T20:28:52.307Z,1.20
2023-01-28T20:31:20.595Z,1.20
2023-01-28T20:33:48.011Z,1.20
2023-01-28T20:36:15.567Z,1.20
2023-01-28T20:38:45.334Z,1.20
2023-01-28T20:41:15.073Z,1.20
2023-01-28T20:43:44.663Z,1.20
2023-01-28T20:46:20.344Z,1.30
2023-01-28T20:48:48.311Z,1.30
2023-01-28T20:51:21.424Z,1.30
2023-01-28T20:53:49.523Z,1.30
2023-01-28T20:56:19.969Z,1.30
2023-01-28T20:58:49.330Z,1.30
2023-01-28T21:01:22.558Z,1.30
2023-01-28T21:03:50.077Z,1.30
2023-01-28T21:06:18.014Z,1.30
2023-01-28T21:08:45.544Z,1.30
2023-01-28T21:11:13.695Z,1.30
2023-01-28T21:13:41.159Z,1.30
2023-01-28T21:16:08.874Z,1.30
2023-01-28T21:18:36.603Z,1.40
2023-01-28T21:21:06.227Z,1.30
2023-01-28T21:23:33.478Z,1.30
2023-01-28T21:26:03.054Z,1.40
2023-01-28T21:28:30.567Z,1.40
2023-01-28T21:31:14.255Z,1.40
2023-01-28T21:33:41.464Z,1.40
2023-01-28T21:36:14.203Z,1.40
2023-01-28T21:38:42.241Z,1.40
2023-01-28T21:41:09.810Z,1.40
2023-01-28T21:43:37.691Z,1.40
2023-01-28T21:46:05.171Z,1.40
2023-01-28T21:48:32.432Z,1.40
2023-01-28T21:51:27.368Z,1.40
2023-01-28T21:53:54.737Z,1.40
2023-01-28T21:56:21.935Z,1.40
2023-01-28T21:59:08.077Z,1.40
2023-01-28T22:01:35.279Z,1.40
2023-01-28T22:04:02.947Z,1.40
2023-01-28T22:06:30.266Z,1.40
2023-01-28T22:08:57.495Z,1.40
2023-01-28T22:11:24.662Z,1.40
2023-01-28T22:13:51.871Z,1.40
2023-01-28T22:16:19.059Z,1.40
2023-01-28T22:18:47.519Z,1.40
2023-01-28T22:21:15.001Z,1.40
2023-01-28T22:23:42.406Z,1.40
2023-01-28T22:26:09.596Z,1.40
2023-01-28T22:28:37.836Z,1.40
2023-01-28T22:31:11.115Z,1.40
2023-01-28T22:33:38.988Z,1.40
2023-01-28T22:36:08.467Z,1.40
2023-01-28T22:38:41.973Z,1.40
2023-01-28T22:41:23.084Z,1.40
2023-01-28T22:43:53.279Z,1.30
2023-01-28T22:46:22.177Z,1.30
2023-01-28T22:48:50.672Z,1.30
2023-01-28T22:51:19.616Z,1.30
2023-01-28T22:53:49.261Z,1.40
2023-01-28T22:56:18.117Z,1.40
2023-01-28T22:58:45.563Z,1.40
2023-01-28T23:01:15.437Z,1.30
2023-01-28T23:03:47.289Z,1.30
2023-01-28T23:06:16.617Z,1.40
2023-01-28T23:08:44.489Z,1.40
2023-01-28T23:11:15.138Z,1.40
2023-01-28T23:14:02.152Z,1.40
2023-01-28T23:16:49.207Z,1.40
2023-01-28T23:19:35.529Z,1.40
2023-01-28T23:22:21.472Z,1.40
2023-01-28T23:24:48.682Z,1.40
2023-01-28T23:27:15.874Z,1.40
2023-01-28T23:29:43.056Z,1.30
2023-01-28T23:32:11.103Z,1.30
2023-01-28T23:34:44.413Z,1.40
2023-01-28T23:37:15.247Z,1.40
2023-01-28T23:39:43.003Z,1.40
2023-01-28T23:42:13.036Z,1.30
2023-01-28T23:44:40.573Z,1.30
2023-01-28T23:47:08.236Z,1.40
2023-01-28T23:49:35.581Z,1.40
2023-01-28T23:52:04.240Z,1.40
2023-01-28T23:54:31.709Z,1.40
2023-01-28T23:56:59.558Z,1.40
2023-01-28T23:59:27.221Z,1.40
